sensor_id;sensor_type;location;lat;lon;timestamp;pressure;altitude;pressure_sealevel;temperature;humidity
69306;BME280;56427;51.580;4.656;2023-02-20T00:02:22;102578.38;;;4.51;100.00
69306;BME280;56427;51.580;4.656;2023-02-20T00:04:48;102577.81;;;4.70;100.00
69306;BME280;56427;51.580;4.656;2023-02-20T00:07:13;102572.91;;;4.62;100.00
69306;BME280;56427;51.580;4.656;2023-02-20T00:09:39;102575.53;;;4.60;100.00
69306;BME280;56427;51.580;4.656;2023-02-20T00:12:04;102557.69;;;4.56;100.00
69306;BME280;56427;51.580;4.656;2023-02-20T00:14:30;102557.78;;;4.53;100.00
69306;BME280;56427;51.580;4.656;2023-02-20T00:16:55;102552.50;;;4.57;100.00
69306;BME280;56427;51.580;4.656;2023-02-20T00:19:21;102558.34;;;4.63;100.00
69306;BME280;56427;51.580;4.656;2023-02-20T00:21:47;102554.19;;;4.57;100.00
69306;BME280;56427;51.580;4.656;2023-02-20T00:24:14;102548.97;;;4.60;100.00
69306;BME280;56427;51.580;4.656;2023-02-20T00:26:48;102536.50;;;4.48;100.00
69306;BME280;56427;51.580;4.656;2023-02-20T00:29:16;102545.59;;;4.58;100.00
69306;BME280;56427;51.580;4.656;2023-02-20T00:31:41;102534.44;;;4.59;100.00
69306;BME280;56427;51.580;4.656;2023-02-20T00:34:07;102539.38;;;4.65;100.00
69306;BME280;56427;51.580;4.656;2023-02-20T00:36:33;102529.03;;;4.67;100.00
69306;BME280;56427;51.580;4.656;2023-02-20T00:38:58;102520.50;;;4.66;100.00
69306;BME280;56427;51.580;4.656;2023-02-20T00:41:24;102522.28;;;4.64;100.00
69306;BME280;56427;51.580;4.656;2023-02-20T00:43:49;102518.19;;;4.57;100.00
69306;BME280;56427;51.580;4.656;2023-02-20T00:46:15;102510.78;;;4.48;100.00
69306;BME280;56427;51.580;4.656;2023-02-20T00:48:41;102508.91;;;4.53;100.00
69306;BME280;56427;51.580;4.656;2023-02-20T00:51:06;102516.06;;;4.43;100.00
69306;BME280;56427;51.580;4.656;2023-02-20T00:53:31;102504.59;;;4.53;100.00
69306;BME280;56427;51.580;4.656;2023-02-20T00:55:57;102497.94;;;4.48;100.00
69306;BME280;56427;51.580;4.656;2023-02-20T00:58:22;102509.97;;;4.46;100.00
69306;BME280;56427;51.580;4.656;2023-02-20T01:00:47;102500.50;;;4.48;100.00
69306;BME280;56427;51.580;4.656;2023-02-20T01:03:13;102498.59;;;4.54;100.00
69306;BME280;56427;51.580;4.656;2023-02-20T01:05:38;102499.88;;;4.68;100.00
69306;BME280;56427;51.580;4.656;2023-02-20T01:08:04;102504.25;;;4.66;100.00
69306;BME280;56427;51.580;4.656;2023-02-20T01:10:29;102512.75;;;4.68;100.00
69306;BME280;56427;51.580;4.656;2023-02-20T01:12:54;102507.13;;;4.82;100.00
69306;BME280;56427;51.580;4.656;2023-02-20T01:15:20;102497.09;;;5.01;100.00
69306;BME280;56427;51.580;4.656;2023-02-20T01:17:45;102499.72;;;4.99;100.00
69306;BME280;56427;51.580;4.656;2023-02-20T01:20:11;102502.94;;;5.06;100.00
69306;BME280;56427;51.580;4.656;2023-02-20T01:22:36;102507.78;;;5.15;100.00
69306;BME280;56427;51.580;4.656;2023-02-20T01:25:02;102511.41;;;5.09;100.00
69306;BME280;56427;51.580;4.656;2023-02-20T01:27:28;102498.47;;;5.11;100.00
69306;BME280;56427;51.580;4.656;2023-02-20T01:29:53;102491.38;;;5.18;100.00
69306;BME280;56427;51.580;4.656;2023-02-20T01:32:18;102496.72;;;5.11;100.00
69306;BME280;56427;51.580;4.656;2023-02-20T01:34:44;102500.84;;;5.17;100.00
69306;BME280;56427;51.580;4.656;2023-02-20T01:37:12;102483.47;;;5.24;100.00
69306;BME280;56427;51.580;4.656;2023-02-20T01:39:38;102481.66;;;5.26;100.00
69306;BME280;56427;51.580;4.656;2023-02-20T01:42:06;102486.88;;;5.24;100.00
69306;BME280;56427;51.580;4.656;2023-02-20T01:44:35;102477.44;;;5.25;100.00
69306;BME280;56427;51.580;4.656;2023-02-20T01:47:04;102479.44;;;5.16;100.00
69306;BME280;56427;51.580;4.656;2023-02-20T01:49:40;102477.47;;;5.23;100.00
69306;BME280;56427;51.580;4.656;2023-02-20T01:52:14;102468.94;;;5.21;100.00
69306;BME280;56427;51.580;4.656;2023-02-20T01:54:42;102473.22;;;5.22;100.00
69306;BME280;56427;51.580;4.656;2023-02-20T01:57:17;102468.16;;;5.19;100.00
69306;BME280;56427;51.580;4.656;2023-02-20T01:59:44;102463.50;;;5.30;100.00
69306;BME280;56427;51.580;4.656;2023-02-20T02:02:10;102468.66;;;5.30;100.00
69306;BME280;56427;51.580;4.656;2023-02-20T02:04:38;102455.63;;;5.35;100.00
69306;BME280;56427;51.580;4.656;2023-02-20T02:07:05;102459.84;;;5.36;100.00
69306;BME280;56427;51.580;4.656;2023-02-20T02:09:52;102464.22;;;5.34;100.00
69306;BME280;56427;51.580;4.656;2023-02-20T02:12:21;102442.06;;;5.30;100.00
69306;BME280;56427;51.580;4.656;2023-02-20T02:14:46;102462.38;;;5.38;100.00
69306;BME280;56427;51.580;4.656;2023-02-20T02:30:54;102440.28;;;5.32;100.00
69306;BME280;56427;51.580;4.656;2023-02-20T02:33:41;102434.19;;;5.34;100.00
69306;BME280;56427;51.580;4.656;2023-02-20T02:36:22;102423.25;;;5.28;100.00
69306;BME280;56427;51.580;4.656;2023-02-20T02:39:22;102428.13;;;5.35;100.00
69306;BME280;56427;51.580;4.656;2023-02-20T02:42:16;102428.56;;;5.23;100.00
69306;BME280;56427;51.580;4.656;2023-02-20T02:47:32;102415.19;;;5.13;100.00
69306;BME280;56427;51.580;4.656;2023-02-20T02:50:31;102417.25;;;5.04;100.00
69306;BME280;56427;51.580;4.656;2023-02-20T02:52:56;102412.03;;;5.05;100.00
69306;BME280;56427;51.580;4.656;2023-02-20T02:55:26;102405.25;;;5.03;100.00
69306;BME280;56427;51.580;4.656;2023-02-20T02:57:52;102409.31;;;5.10;100.00
69306;BME280;56427;51.580;4.656;2023-02-20T03:00:44;102401.50;;;5.11;100.00
69306;BME280;56427;51.580;4.656;2023-02-20T03:03:27;102388.72;;;5.10;100.00
69306;BME280;56427;51.580;4.656;2023-02-20T03:06:00;102387.91;;;5.08;100.00
69306;BME280;56427;51.580;4.656;2023-02-20T03:08:37;102380.91;;;5.11;100.00
69306;BME280;56427;51.580;4.656;2023-02-20T03:11:10;102381.50;;;5.20;100.00
69306;BME280;56427;51.580;4.656;2023-02-20T03:13:53;102388.13;;;5.27;100.00
69306;BME280;56427;51.580;4.656;2023-02-20T03:19:50;102383.38;;;5.40;100.00
69306;BME280;56427;51.580;4.656;2023-02-20T03:22:24;102378.66;;;5.51;100.00
69306;BME280;56427;51.580;4.656;2023-02-20T03:24:55;102379.34;;;5.56;100.00
69306;BME280;56427;51.580;4.656;2023-02-20T03:27:43;102372.16;;;5.64;100.00
69306;BME280;56427;51.580;4.656;2023-02-20T03:33:03;102370.38;;;5.88;100.00
69306;BME280;56427;51.580;4.656;2023-02-20T03:35:52;102374.38;;;5.97;100.00
69306;BME280;56427;51.580;4.656;2023-02-20T03:38:40;102367.28;;;6.02;100.00
69306;BME280;56427;51.580;4.656;2023-02-20T03:41:26;102376.63;;;6.05;100.00
69306;BME280;56427;51.580;4.656;2023-02-20T03:44:12;102374.91;;;6.05;100.00
69306;BME280;56427;51.580;4.656;2023-02-20T03:46:39;102376.44;;;6.10;100.00
69306;BME280;56427;51.580;4.656;2023-02-20T03:49:10;102376.41;;;6.11;100.00
69306;BME280;56427;51.580;4.656;2023-02-20T03:51:36;102379.81;;;6.12;100.00
69306;BME280;56427;51.580;4.656;2023-02-20T03:54:03;102375.56;;;6.11;100.00
69306;BME280;56427;51.580;4.656;2023-02-20T03:56:38;102380.78;;;6.09;100.00
69306;BME280;56427;51.580;4.656;2023-02-20T03:59:14;102376.56;;;6.06;100.00
69306;BME280;56427;51.580;4.656;2023-02-20T04:01:44;102379.09;;;6.08;100.00
69306;BME280;56427;51.580;4.656;2023-02-20T04:04:17;102376.69;;;6.03;100.00
69306;BME280;56427;51.580;4.656;2023-02-20T04:06:46;102377.50;;;6.05;100.00
69306;BME280;56427;51.580;4.656;2023-02-20T04:09:20;102374.09;;;6.03;100.00
69306;BME280;56427;51.580;4.656;2023-02-20T04:11:57;102374.97;;;6.04;100.00
69306;BME280;56427;51.580;4.656;2023-02-20T04:14:25;102374.91;;;6.05;100.00
69306;BME280;56427;51.580;4.656;2023-02-20T04:16:57;102384.19;;;6.10;100.00
69306;BME280;56427;51.580;4.656;2023-02-20T04:19:23;102385.00;;;6.10;100.00
69306;BME280;56427;51.580;4.656;2023-02-20T04:21:54;102375.50;;;6.12;100.00
69306;BME280;56427;51.580;4.656;2023-02-20T04:24:30;102384.84;;;6.15;100.00
69306;BME280;56427;51.580;4.656;2023-02-20T04:26:59;102371.84;;;6.18;100.00
69306;BME280;56427;51.580;4.656;2023-02-20T04:29:24;102368.44;;;6.17;100.00
69306;BME280;56427;51.580;4.656;2023-02-20T04:31:50;102370.94;;;6.19;100.00
69306;BME280;56427;51.580;4.656;2023-02-20T04:34:16;102373.53;;;6.19;100.00
69306;BME280;56427;51.580;4.656;2023-02-20T04:36:41;102370.03;;;6.20;100.00
69306;BME280;56427;51.580;4.656;2023-02-20T04:39:06;102378.44;;;6.25;100.00
69306;BME280;56427;51.580;4.656;2023-02-20T04:41:32;102379.22;;;6.27;100.00
69306;BME280;56427;51.580;4.656;2023-02-20T04:43:57;102373.13;;;6.28;100.00
69306;BME280;56427;51.580;4.656;2023-02-20T04:46:41;102373.13;;;6.28;100.00
69306;BME280;56427;51.580;4.656;2023-02-20T04:49:06;102381.59;;;6.32;100.00
69306;BME280;56427;51.580;4.656;2023-02-20T04:51:32;102385.06;;;6.31;100.00
69306;BME280;56427;51.580;4.656;2023-02-20T04:53:57;102376.56;;;6.29;100.00
69306;BME280;56427;51.580;4.656;2023-02-20T04:56:22;102379.81;;;6.34;100.00
69306;BME280;56427;51.580;4.656;2023-02-20T04:58:48;102377.94;;;6.37;100.00
69306;BME280;56427;51.580;4.656;2023-02-20T05:01:14;102380.44;;;6.39;100.00
69306;BME280;56427;51.580;4.656;2023-02-20T05:03:39;102375.28;;;6.39;100.00
69306;BME280;56427;51.580;4.656;2023-02-20T05:06:05;102376.97;;;6.40;100.00
69306;BME280;56427;51.580;4.656;2023-02-20T05:08:30;102376.97;;;6.40;100.00
69306;BME280;56427;51.580;4.656;2023-02-20T05:10:56;102374.94;;;6.48;100.00
69306;BME280;56427;51.580;4.656;2023-02-20T05:13:21;102378.41;;;6.47;100.00
69306;BME280;56427;51.580;4.656;2023-02-20T05:15:46;102381.81;;;6.48;100.00
69306;BME280;56427;51.580;4.656;2023-02-20T05:18:12;102380.97;;;6.47;100.00
69306;BME280;56427;51.580;4.656;2023-02-20T05:20:37;102389.53;;;6.48;100.00
69306;BME280;56427;51.580;4.656;2023-02-20T05:23:21;102382.44;;;6.53;100.00
69306;BME280;56427;51.580;4.656;2023-02-20T05:25:46;102378.16;;;6.53;100.00
69306;BME280;56427;51.580;4.656;2023-02-20T05:28:11;102388.47;;;6.53;100.00
69306;BME280;56427;51.580;4.656;2023-02-20T05:30:37;102387.47;;;6.56;100.00
69306;BME280;56427;51.580;4.656;2023-02-20T05:33:02;102368.66;;;6.54;100.00
69306;BME280;56427;51.580;4.656;2023-02-20T05:35:27;102386.53;;;6.58;100.00
69306;BME280;56427;51.580;4.656;2023-02-20T05:37:53;102379.69;;;6.57;100.00
69306;BME280;56427;51.580;4.656;2023-02-20T05:40:18;102385.81;;;6.55;100.00
69306;BME280;56427;51.580;4.656;2023-02-20T05:42:43;102378.03;;;6.56;100.00
69306;BME280;56427;51.580;4.656;2023-02-20T05:45:09;102378.03;;;6.56;100.00
69306;BME280;56427;51.580;4.656;2023-02-20T05:47:36;102372.00;;;6.56;100.00
69306;BME280;56427;51.580;4.656;2023-02-20T05:50:02;102370.34;;;6.55;100.00
69306;BME280;56427;51.580;4.656;2023-02-20T05:52:28;102371.13;;;6.57;100.00
69306;BME280;56427;51.580;4.656;2023-02-20T05:54:54;102372.66;;;6.61;100.00
69306;BME280;56427;51.580;4.656;2023-02-20T05:57:19;102366.78;;;6.57;100.00
69306;BME280;56427;51.580;4.656;2023-02-20T05:59:44;102370.34;;;6.55;100.00
69306;BME280;56427;51.580;4.656;2023-02-20T06:02:09;102382.31;;;6.56;100.00
69306;BME280;56427;51.580;4.656;2023-02-20T06:04:35;102383.19;;;6.56;100.00
69306;BME280;56427;51.580;4.656;2023-02-20T06:07:00;102384.72;;;6.60;100.00
69306;BME280;56427;51.580;4.656;2023-02-20T06:09:25;102391.56;;;6.61;100.00
69306;BME280;56427;51.580;4.656;2023-02-20T06:11:55;102393.22;;;6.62;100.00
69306;BME280;56427;51.580;4.656;2023-02-20T06:14:23;102388.00;;;6.64;100.00
69306;BME280;56427;51.580;4.656;2023-02-20T06:16:48;102388.94;;;6.63;100.00
69306;BME280;56427;51.580;4.656;2023-02-20T06:19:22;102388.00;;;6.64;100.00
69306;BME280;56427;51.580;4.656;2023-02-20T06:21:49;102404.34;;;6.65;100.00
69306;BME280;56427;51.580;4.656;2023-02-20T06:24:16;102386.28;;;6.65;100.00
69306;BME280;56427;51.580;4.656;2023-02-20T06:26:42;102396.59;;;6.65;100.00
69306;BME280;56427;51.580;4.656;2023-02-20T06:29:07;102392.16;;;6.68;100.00
69306;BME280;56427;51.580;4.656;2023-02-20T06:31:33;102375.97;;;6.65;100.00
69306;BME280;56427;51.580;4.656;2023-02-20T06:33:58;102384.34;;;6.70;100.00
69306;BME280;56427;51.580;4.656;2023-02-20T06:36:29;102390.34;;;6.70;100.00
69306;BME280;56427;51.580;4.656;2023-02-20T06:38:55;102388.59;;;6.71;100.00
69306;BME280;56427;51.580;4.656;2023-02-20T06:41:21;102385.19;;;6.70;100.00
69306;BME280;56427;51.580;4.656;2023-02-20T06:43:46;102385.19;;;6.70;100.00
69306;BME280;56427;51.580;4.656;2023-02-20T06:46:12;102386.59;;;6.77;100.00
69306;BME280;56427;51.580;4.656;2023-02-20T06:48:49;102386.88;;;6.71;100.00
69306;BME280;56427;51.580;4.656;2023-02-20T06:51:16;102395.31;;;6.75;100.00
69306;BME280;56427;51.580;4.656;2023-02-20T06:53:42;102388.34;;;6.77;100.00
69306;BME280;56427;51.580;4.656;2023-02-20T06:56:08;102379.69;;;6.78;100.00
69306;BME280;56427;51.580;4.656;2023-02-20T06:58:35;102378.13;;;6.74;100.00
69306;BME280;56427;51.580;4.656;2023-02-20T07:01:00;102386.59;;;6.77;100.00
69306;BME280;56427;51.580;4.656;2023-02-20T07:03:25;102379.63;;;6.79;100.00
69306;BME280;56427;51.580;4.656;2023-02-20T07:05:51;102384.81;;;6.79;100.00
69306;BME280;56427;51.580;4.656;2023-02-20T07:08:16;102389.03;;;6.80;100.00
69306;BME280;56427;51.580;4.656;2023-02-20T07:10:41;102384.59;;;6.84;100.00
69306;BME280;56427;51.580;4.656;2023-02-20T07:13:07;102395.00;;;6.82;100.00
69306;BME280;56427;51.580;4.656;2023-02-20T07:15:32;102387.16;;;6.84;100.00
69306;BME280;56427;51.580;4.656;2023-02-20T07:17:58;102389.63;;;6.87;100.00
69306;BME280;56427;51.580;4.656;2023-02-20T07:20:24;102376.84;;;6.84;100.00
69306;BME280;56427;51.580;4.656;2023-02-20T07:22:52;102387.91;;;6.88;100.00
69306;BME280;56427;51.580;4.656;2023-02-20T07:25:18;102392.19;;;6.87;100.00
69306;BME280;56427;51.580;4.656;2023-02-20T07:27:44;102386.84;;;6.92;100.00
69306;BME280;56427;51.580;4.656;2023-02-20T07:30:10;102391.13;;;6.93;100.00
69306;BME280;56427;51.580;4.656;2023-02-20T07:32:35;102392.06;;;6.90;100.00
69306;BME280;56427;51.580;4.656;2023-02-20T07:35:01;102389.44;;;6.92;100.00
69306;BME280;56427;51.580;4.656;2023-02-20T07:37:26;102390.97;;;6.96;100.00
69306;BME280;56427;51.580;4.656;2023-02-20T07:39:52;102390.19;;;6.94;100.00
69306;BME280;56427;51.580;4.656;2023-02-20T07:42:17;102390.13;;;6.95;100.00
69306;BME280;56427;51.580;4.656;2023-02-20T07:44:43;102381.63;;;6.93;100.00
69306;BME280;56427;51.580;4.656;2023-02-20T07:47:11;102393.34;;;7.00;100.00
69306;BME280;56427;51.580;4.656;2023-02-20T07:49:36;102386.53;;;6.99;100.00
69306;BME280;56427;51.580;4.656;2023-02-20T07:52:02;102390.69;;;7.02;100.00
69306;BME280;56427;51.580;4.656;2023-02-20T07:54:28;102388.00;;;7.05;100.00
69306;BME280;56427;51.580;4.656;2023-02-20T07:56:54;102398.25;;;7.07;100.00
69306;BME280;56427;51.580;4.656;2023-02-20T07:59:19;102400.84;;;7.07;100.00
69306;BME280;56427;51.580;4.656;2023-02-20T08:01:45;102397.41;;;7.06;100.00
69306;BME280;56427;51.580;4.656;2023-02-20T08:04:10;102399.25;;;7.04;100.00
69306;BME280;56427;51.580;4.656;2023-02-20T08:06:36;102399.94;;;7.08;100.00
69306;BME280;56427;51.580;4.656;2023-02-20T08:09:02;102400.06;;;7.05;100.00
69306;BME280;56427;51.580;4.656;2023-02-20T08:11:27;102403.41;;;7.07;100.00
69306;BME280;56427;51.580;4.656;2023-02-20T08:13:52;102395.41;;;7.13;100.00
69306;BME280;56427;51.580;4.656;2023-02-20T08:16:20;102400.38;;;7.17;100.00
69306;BME280;56427;51.580;4.656;2023-02-20T08:18:46;102399.63;;;7.15;100.00
69306;BME280;56427;51.580;4.656;2023-02-20T08:21:12;102382.03;;;7.24;100.00
69306;BME280;56427;51.580;4.656;2023-02-20T08:23:37;102391.88;;;7.15;100.00
69306;BME280;56427;51.580;4.656;2023-02-20T08:26:04;102396.81;;;7.20;100.00
69306;BME280;56427;51.580;4.656;2023-02-20T08:28:30;102401.06;;;7.21;100.00
69306;BME280;56427;51.580;4.656;2023-02-20T08:30:55;102395.84;;;7.23;100.00
69306;BME280;56427;51.580;4.656;2023-02-20T08:33:20;102388.09;;;7.23;100.00
69306;BME280;56427;51.580;4.656;2023-02-20T08:35:46;102402.75;;;7.22;100.00
69306;BME280;56427;51.580;4.656;2023-02-20T08:38:31;102393.13;;;7.26;100.00
69306;BME280;56427;51.580;4.656;2023-02-20T08:41:01;102390.56;;;7.26;100.00
69306;BME280;56427;51.580;4.656;2023-02-20T08:43:26;102404.22;;;7.28;100.00
69306;BME280;56427;51.580;4.656;2023-02-20T08:45:51;102402.28;;;7.33;100.00
69306;BME280;56427;51.580;4.656;2023-02-20T08:48:17;102397.44;;;7.25;100.00
69306;BME280;56427;51.580;4.656;2023-02-20T08:50:43;102404.09;;;7.31;100.00
69306;BME280;56427;51.580;4.656;2023-02-20T08:53:09;102405.00;;;7.30;100.00
69306;BME280;56427;51.580;4.656;2023-02-20T08:55:34;102397.03;;;7.34;100.00
69306;BME280;56427;51.580;4.656;2023-02-20T08:58:00;102393.63;;;7.34;100.00
69306;BME280;56427;51.580;4.656;2023-02-20T09:00:26;102395.22;;;7.36;100.00
69306;BME280;56427;51.580;4.656;2023-02-20T09:02:51;102400.31;;;7.38;100.00
69306;BME280;56427;51.580;4.656;2023-02-20T09:05:16;102404.47;;;7.42;100.00
69306;BME280;56427;51.580;4.656;2023-02-20T09:07:42;102388.41;;;7.35;100.00
69306;BME280;56427;51.580;4.656;2023-02-20T09:10:07;102404.47;;;7.42;100.00
69306;BME280;56427;51.580;4.656;2023-02-20T09:12:34;102393.56;;;7.35;100.00
69306;BME280;56427;51.580;4.656;2023-02-20T09:14:59;102392.31;;;7.44;100.00
69306;BME280;56427;51.580;4.656;2023-02-20T09:17:27;102400.06;;;7.44;100.00
69306;BME280;56427;51.580;4.656;2023-02-20T09:19:53;102398.38;;;7.43;100.00
69306;BME280;56427;51.580;4.656;2023-02-20T09:22:25;102404.19;;;7.48;100.00
69306;BME280;56427;51.580;4.656;2023-02-20T09:24:51;102407.66;;;7.47;100.00
69306;BME280;56427;51.580;4.656;2023-02-20T09:27:17;102403.19;;;7.51;100.00
69306;BME280;56427;51.580;4.656;2023-02-20T09:29:43;102400.56;;;7.52;100.00
69306;BME280;56427;51.580;4.656;2023-02-20T09:32:09;102394.81;;;7.46;100.00
69306;BME280;56427;51.580;4.656;2023-02-20T09:34:34;102387.97;;;7.45;100.00
69306;BME280;56427;51.580;4.656;2023-02-20T09:36:59;102393.75;;;7.50;100.00
69306;BME280;56427;51.580;4.656;2023-02-20T09:39:24;102392.94;;;7.49;100.00
69306;BME280;56427;51.580;4.656;2023-02-20T09:45:15;102384.41;;;7.47;100.00
69306;BME280;56427;51.580;4.656;2023-02-20T09:53:34;102366.41;;;7.46;100.00
69306;BME280;56427;51.580;4.656;2023-02-20T09:56:03;102384.56;;;7.44;100.00
69306;BME280;56427;51.580;4.656;2023-02-20T10:01:27;102374.16;;;7.46;100.00
69306;BME280;56427;51.580;4.656;2023-02-20T10:04:10;102375.78;;;7.48;100.00
69306;BME280;56427;51.580;4.656;2023-02-20T10:06:37;102397.28;;;7.49;100.00
69306;BME280;56427;51.580;4.656;2023-02-20T10:09:04;102385.38;;;7.45;100.00
69306;BME280;56427;51.580;4.656;2023-02-20T10:17:06;102397.97;;;7.52;100.00
69306;BME280;56427;51.580;4.656;2023-02-20T10:22:15;102388.47;;;7.53;100.00
69306;BME280;56427;51.580;4.656;2023-02-20T10:25:04;102406.13;;;7.43;100.00
69306;BME280;56427;51.580;4.656;2023-02-20T10:27:51;102405.59;;;7.55;100.00
69306;BME280;56427;51.580;4.656;2023-02-20T10:30:40;102400.00;;;7.46;100.00
69306;BME280;56427;51.580;4.656;2023-02-20T10:33:37;102414.28;;;7.53;100.00
69306;BME280;56427;51.580;4.656;2023-02-20T10:36:22;102427.16;;;7.54;100.00
69306;BME280;56427;51.580;4.656;2023-02-20T10:38:53;102399.78;;;7.50;100.00
69306;BME280;56427;51.580;4.656;2023-02-20T10:41:50;102413.28;;;7.57;100.00
69306;BME280;56427;51.580;4.656;2023-02-20T10:46:59;102402.97;;;7.74;100.00
69306;BME280;56427;51.580;4.656;2023-02-20T10:52:28;102397.69;;;7.78;100.00
69306;BME280;56427;51.580;4.656;2023-02-20T10:55:09;102408.88;;;7.78;100.00
69306;BME280;56427;51.580;4.656;2023-02-20T10:57:46;102410.38;;;7.82;100.00
69306;BME280;56427;51.580;4.656;2023-02-20T11:00:16;102404.25;;;7.85;100.00
69306;BME280;56427;51.580;4.656;2023-02-20T11:02:53;102408.00;;;7.78;100.00
69306;BME280;56427;51.580;4.656;2023-02-20T11:05:22;102409.78;;;7.77;100.00
69306;BME280;56427;51.580;4.656;2023-02-20T11:07:50;102406.50;;;7.73;100.00
69306;BME280;56427;51.580;4.656;2023-02-20T11:10:17;102411.22;;;7.83;100.00
69306;BME280;56427;51.580;4.656;2023-02-20T11:12:50;102409.63;;;7.80;100.00
69306;BME280;56427;51.580;4.656;2023-02-20T11:15:22;102407.03;;;7.80;100.00
69306;BME280;56427;51.580;4.656;2023-02-20T11:17:52;102404.19;;;7.86;100.00
69306;BME280;56427;51.580;4.656;2023-02-20T11:26:12;102389.78;;;8.17;100.00
69306;BME280;56427;51.580;4.656;2023-02-20T11:28:39;102388.88;;;8.18;100.00
69306;BME280;56427;51.580;4.656;2023-02-20T11:31:06;102382.28;;;8.30;100.00
69306;BME280;56427;51.580;4.656;2023-02-20T11:33:34;102387.41;;;8.66;100.00
69306;BME280;56427;51.580;4.656;2023-02-20T11:36:11;102371.16;;;8.47;100.00
69306;BME280;56427;51.580;4.656;2023-02-20T11:38:37;102380.41;;;8.51;100.00
69306;BME280;56427;51.580;4.656;2023-02-20T11:41:18;102383.53;;;8.58;100.00
69306;BME280;56427;51.580;4.656;2023-02-20T11:43:46;102374.66;;;8.63;100.00
69306;BME280;56427;51.580;4.656;2023-02-20T11:49:00;102367.06;;;8.76;100.00
69306;BME280;56427;51.580;4.656;2023-02-20T11:54:20;102348.03;;;8.77;100.00
69306;BME280;56427;51.580;4.656;2023-02-20T11:59:40;102346.72;;;8.86;100.00
69306;BME280;56427;51.580;4.656;2023-02-20T12:04:34;102346.63;;;8.72;100.00
69306;BME280;56427;51.580;4.656;2023-02-20T12:07:16;102339.59;;;8.74;100.00
69306;BME280;56427;51.580;4.656;2023-02-20T12:09:44;102338.94;;;8.70;100.00
69306;BME280;56427;51.580;4.656;2023-02-20T12:12:13;102335.47;;;8.70;100.00
69306;BME280;56427;51.580;4.656;2023-02-20T12:14:40;102330.97;;;8.73;100.00
69306;BME280;56427;51.580;4.656;2023-02-20T12:17:37;102323.94;;;8.59;100.00
69306;BME280;56427;51.580;4.656;2023-02-20T12:20:23;102321.81;;;8.50;100.00
69306;BME280;56427;51.580;4.656;2023-02-20T12:25:26;102299.81;;;8.59;100.00
69306;BME280;56427;51.580;4.656;2023-02-20T12:28:26;102293.88;;;8.57;100.00
69306;BME280;56427;51.580;4.656;2023-02-20T12:39:05;102257.63;;;8.57;100.00
69306;BME280;56427;51.580;4.656;2023-02-20T12:41:41;102267.41;;;8.85;100.00
69306;BME280;56427;51.580;4.656;2023-02-20T12:44:20;102253.75;;;8.81;100.00
69306;BME280;56427;51.580;4.656;2023-02-20T12:47:03;102246.09;;;8.80;100.00
69306;BME280;56427;51.580;4.656;2023-02-20T12:49:38;102257.28;;;8.80;100.00
69306;BME280;56427;51.580;4.656;2023-02-20T13:00:39;102229.22;;;8.89;100.00
69306;BME280;56427;51.580;4.656;2023-02-20T13:03:19;102237.94;;;9.03;100.00
69306;BME280;56427;51.580;4.656;2023-02-20T13:05:47;102258.41;;;9.08;100.00
69306;BME280;56427;51.580;4.656;2023-02-20T13:11:15;102283.59;;;8.89;100.00
69306;BME280;56427;51.580;4.656;2023-02-20T13:14:07;102280.09;;;8.90;100.00
69306;BME280;56427;51.580;4.656;2023-02-20T13:16:45;102284.03;;;8.97;100.00
69306;BME280;56427;51.580;4.656;2023-02-20T13:21:47;102291.72;;;8.98;100.00
69306;BME280;56427;51.580;4.656;2023-02-20T13:26:57;102288.38;;;8.96;100.00
69306;BME280;56427;51.580;4.656;2023-02-20T13:29:25;102283.38;;;8.93;100.00
69306;BME280;56427;51.580;4.656;2023-02-20T13:31:56;102286.00;;;8.76;100.00
69306;BME280;56427;51.580;4.656;2023-02-20T13:34:36;102286.31;;;8.70;100.00
69306;BME280;56427;51.580;4.656;2023-02-20T13:37:04;102281.84;;;8.56;100.00
69306;BME280;56427;51.580;4.656;2023-02-20T13:52:31;102256.88;;;8.55;100.00
69306;BME280;56427;51.580;4.656;2023-02-20T13:55:12;102255.75;;;8.60;100.00
69306;BME280;56427;51.580;4.656;2023-02-20T13:57:51;102235.59;;;8.50;100.00
69306;BME280;56427;51.580;4.656;2023-02-20T14:00:25;102257.91;;;8.52;100.00
69306;BME280;56427;51.580;4.656;2023-02-20T14:02:52;102250.81;;;8.56;100.00
69306;BME280;56427;51.580;4.656;2023-02-20T14:07:48;102218.81;;;8.57;100.00
69306;BME280;56427;51.580;4.656;2023-02-20T14:10:24;102218.81;;;8.57;100.00
69306;BME280;56427;51.580;4.656;2023-02-20T14:15:44;102224.34;;;8.51;100.00
69306;BME280;56427;51.580;4.656;2023-02-20T14:18:24;102220.44;;;8.59;100.00
69306;BME280;56427;51.580;4.656;2023-02-20T14:20:57;102213.00;;;8.69;100.00
69306;BME280;56427;51.580;4.656;2023-02-20T14:23:27;102216.16;;;8.58;100.00
69306;BME280;56427;51.580;4.656;2023-02-20T14:25:57;102209.25;;;8.59;100.00
69306;BME280;56427;51.580;4.656;2023-02-20T14:28:23;102193.81;;;8.57;100.00
69306;BME280;56427;51.580;4.656;2023-02-20T14:33:58;102191.28;;;8.56;100.00
69306;BME280;56427;51.580;4.656;2023-02-20T14:36:37;102192.72;;;8.61;100.00
69306;BME280;56427;51.580;4.656;2023-02-20T14:41:54;102205.22;;;8.53;100.00
69306;BME280;56427;51.580;4.656;2023-02-20T14:44:20;102213.84;;;8.70;100.00
69306;BME280;56427;51.580;4.656;2023-02-20T14:46:46;102205.00;;;8.74;100.00
69306;BME280;56427;51.580;4.656;2023-02-20T14:49:26;102201.69;;;8.72;100.00
69306;BME280;56427;51.580;4.656;2023-02-20T14:54:31;102206.66;;;8.75;100.00
69306;BME280;56427;51.580;4.656;2023-02-20T14:56:56;102193.56;;;8.62;100.00
69306;BME280;56427;51.580;4.656;2023-02-20T14:59:36;102193.63;;;8.60;100.00
69306;BME280;56427;51.580;4.656;2023-02-20T15:02:11;102195.97;;;8.65;100.00
69306;BME280;56427;51.580;4.656;2023-02-20T15:05:06;102186.69;;;8.61;100.00